sensor_id;sensor_type;location;lat;lon;timestamp;temperature;humidity
10046;DHT22;5063;50.878;4.742;2022-12-20T00:00:14;12.80;99.90
10046;DHT22;5063;50.878;4.742;2022-12-20T00:02:40;12.80;99.90
10046;DHT22;5063;50.878;4.742;2022-12-20T00:05:06;12.90;99.90
10046;DHT22;5063;50.878;4.742;2022-12-20T00:07:32;12.90;99.90
10046;DHT22;5063;50.878;4.742;2022-12-20T00:09:57;13.00;99.90
10046;DHT22;5063;50.878;4.742;2022-12-20T00:12:23;13.00;99.90
10046;DHT22;5063;50.878;4.742;2022-12-20T00:14:49;13.00;99.90
10046;DHT22;5063;50.878;4.742;2022-12-20T00:17:15;13.00;99.90
10046;DHT22;5063;50.878;4.742;2022-12-20T00:19:43;13.10;99.90
10046;DHT22;5063;50.878;4.742;2022-12-20T00:22:09;13.10;99.90
10046;DHT22;5063;50.878;4.742;2022-12-20T00:24:34;13.00;99.90
10046;DHT22;5063;50.878;4.742;2022-12-20T00:27:00;12.90;99.90
10046;DHT22;5063;50.878;4.742;2022-12-20T00:29:26;13.00;99.90
10046;DHT22;5063;50.878;4.742;2022-12-20T00:31:52;13.00;99.90
10046;DHT22;5063;50.878;4.742;2022-12-20T00:34:18;13.00;99.90
10046;DHT22;5063;50.878;4.742;2022-12-20T00:36:43;13.00;99.90
10046;DHT22;5063;50.878;4.742;2022-12-20T00:39:09;12.90;99.90
10046;DHT22;5063;50.878;4.742;2022-12-20T00:41:35;13.00;99.90
10046;DHT22;5063;50.878;4.742;2022-12-20T00:44:02;12.90;99.90
10046;DHT22;5063;50.878;4.742;2022-12-20T00:46:28;12.80;99.90
10046;DHT22;5063;50.878;4.742;2022-12-20T00:48:54;12.60;99.90
10046;DHT22;5063;50.878;4.742;2022-12-20T00:51:26;12.60;99.90
10046;DHT22;5063;50.878;4.742;2022-12-20T00:53:54;12.50;99.90
10046;DHT22;5063;50.878;4.742;2022-12-20T00:56:20;12.50;99.90
10046;DHT22;5063;50.878;4.742;2022-12-20T00:58:46;12.50;99.90
10046;DHT22;5063;50.878;4.742;2022-12-20T01:01:19;12.50;99.90
10046;DHT22;5063;50.878;4.742;2022-12-20T01:03:46;12.50;99.90
10046;DHT22;5063;50.878;4.742;2022-12-20T01:06:11;12.50;99.90
10046;DHT22;5063;50.878;4.742;2022-12-20T01:08:37;12.60;99.90
10046;DHT22;5063;50.878;4.742;2022-12-20T01:11:11;12.50;99.90
10046;DHT22;5063;50.878;4.742;2022-12-20T01:13:40;12.60;99.90
10046;DHT22;5063;50.878;4.742;2022-12-20T01:16:28;12.60;99.90
10046;DHT22;5063;50.878;4.742;2022-12-20T01:18:54;12.60;99.90
10046;DHT22;5063;50.878;4.742;2022-12-20T01:21:22;12.50;99.90
10046;DHT22;5063;50.878;4.742;2022-12-20T01:23:48;12.50;99.90
10046;DHT22;5063;50.878;4.742;2022-12-20T01:26:17;12.50;99.90
10046;DHT22;5063;50.878;4.742;2022-12-20T01:28:44;12.50;99.90
10046;DHT22;5063;50.878;4.742;2022-12-20T01:31:14;12.50;99.90
10046;DHT22;5063;50.878;4.742;2022-12-20T01:33:40;12.50;99.90
10046;DHT22;5063;50.878;4.742;2022-12-20T01:36:12;12.50;99.90
10046;DHT22;5063;50.878;4.742;2022-12-20T01:38:39;12.40;99.90
10046;DHT22;5063;50.878;4.742;2022-12-20T01:41:05;12.40;99.90
10046;DHT22;5063;50.878;4.742;2022-12-20T01:46:21;12.40;99.90
10046;DHT22;5063;50.878;4.742;2022-12-20T01:48:51;12.40;99.90
10046;DHT22;5063;50.878;4.742;2022-12-20T01:51:18;12.40;99.90
10046;DHT22;5063;50.878;4.742;2022-12-20T01:53:46;12.30;99.90
10046;DHT22;5063;50.878;4.742;2022-12-20T01:56:13;12.30;99.90
10046;DHT22;5063;50.878;4.742;2022-12-20T01:58:39;12.30;99.90
10046;DHT22;5063;50.878;4.742;2022-12-20T02:01:06;12.30;99.90
10046;DHT22;5063;50.878;4.742;2022-12-20T02:03:32;12.30;99.90
10046;DHT22;5063;50.878;4.742;2022-12-20T02:06:13;12.20;99.90
10046;DHT22;5063;50.878;4.742;2022-12-20T02:08:40;12.30;99.90
10046;DHT22;5063;50.878;4.742;2022-12-20T02:16:44;12.30;99.90
10046;DHT22;5063;50.878;4.742;2022-12-20T02:19:20;12.30;99.90
10046;DHT22;5063;50.878;4.742;2022-12-20T02:22:37;12.40;99.90
10046;DHT22;5063;50.878;4.742;2022-12-20T02:30:41;12.50;99.90
10046;DHT22;5063;50.878;4.742;2022-12-20T02:33:11;12.40;99.90
10046;DHT22;5063;50.878;4.742;2022-12-20T02:35:39;12.50;99.90
10046;DHT22;5063;50.878;4.742;2022-12-20T02:41:23;12.50;99.90
10046;DHT22;5063;50.878;4.742;2022-12-20T02:43:55;12.50;99.90
10046;DHT22;5063;50.878;4.742;2022-12-20T02:46:41;12.50;99.90
10046;DHT22;5063;50.878;4.742;2022-12-20T02:49:13;12.50;99.90
10046;DHT22;5063;50.878;4.742;2022-12-20T02:51:42;12.50;99.90
10046;DHT22;5063;50.878;4.742;2022-12-20T02:54:09;12.40;99.90
10046;DHT22;5063;50.878;4.742;2022-12-20T02:56:40;12.30;99.90
10046;DHT22;5063;50.878;4.742;2022-12-20T02:59:14;12.30;99.90
10046;DHT22;5063;50.878;4.742;2022-12-20T03:01:51;12.20;99.90
10046;DHT22;5063;50.878;4.742;2022-12-20T03:04:20;12.30;99.90
10046;DHT22;5063;50.878;4.742;2022-12-20T03:07:01;12.30;99.90
10046;DHT22;5063;50.878;4.742;2022-12-20T03:09:31;12.30;99.90
10046;DHT22;5063;50.878;4.742;2022-12-20T03:11:57;12.30;99.90
10046;DHT22;5063;50.878;4.742;2022-12-20T03:14:23;12.30;99.90
10046;DHT22;5063;50.878;4.742;2022-12-20T03:16:49;12.40;99.90
10046;DHT22;5063;50.878;4.742;2022-12-20T03:19:15;12.40;99.90
10046;DHT22;5063;50.878;4.742;2022-12-20T03:21:41;12.40;99.90
10046;DHT22;5063;50.878;4.742;2022-12-20T03:24:07;12.40;99.90
10046;DHT22;5063;50.878;4.742;2022-12-20T03:26:32;12.50;99.90
10046;DHT22;5063;50.878;4.742;2022-12-20T03:28:58;12.50;99.90
10046;DHT22;5063;50.878;4.742;2022-12-20T03:31:24;12.50;99.90
10046;DHT22;5063;50.878;4.742;2022-12-20T03:33:50;12.50;99.90
10046;DHT22;5063;50.878;4.742;2022-12-20T03:36:15;12.50;99.90
10046;DHT22;5063;50.878;4.742;2022-12-20T03:38:41;12.50;99.90
10046;DHT22;5063;50.878;4.742;2022-12-20T03:41:07;12.60;99.90
10046;DHT22;5063;50.878;4.742;2022-12-20T03:43:32;12.60;99.90
10046;DHT22;5063;50.878;4.742;2022-12-20T03:45:58;12.60;99.90
10046;DHT22;5063;50.878;4.742;2022-12-20T03:48:24;12.60;99.90
10046;DHT22;5063;50.878;4.742;2022-12-20T03:50:49;12.70;99.90
10046;DHT22;5063;50.878;4.742;2022-12-20T03:53:15;12.70;99.90
10046;DHT22;5063;50.878;4.742;2022-12-20T03:55:40;12.70;99.90
10046;DHT22;5063;50.878;4.742;2022-12-20T03:58:06;12.50;99.90
10046;DHT22;5063;50.878;4.742;2022-12-20T04:00:32;12.40;99.90
10046;DHT22;5063;50.878;4.742;2022-12-20T04:02:58;12.40;99.90
10046;DHT22;5063;50.878;4.742;2022-12-20T04:05:23;12.40;99.90
10046;DHT22;5063;50.878;4.742;2022-12-20T04:07:49;12.30;99.90
10046;DHT22;5063;50.878;4.742;2022-12-20T04:10:15;12.20;99.90
10046;DHT22;5063;50.878;4.742;2022-12-20T04:12:41;12.20;99.90
10046;DHT22;5063;50.878;4.742;2022-12-20T04:15:07;12.30;99.90
10046;DHT22;5063;50.878;4.742;2022-12-20T04:17:33;12.30;99.90
10046;DHT22;5063;50.878;4.742;2022-12-20T04:19:59;12.20;99.90
10046;DHT22;5063;50.878;4.742;2022-12-20T04:22:44;12.30;99.90
10046;DHT22;5063;50.878;4.742;2022-12-20T04:25:10;12.30;99.90
10046;DHT22;5063;50.878;4.742;2022-12-20T04:27:36;12.30;99.90
10046;DHT22;5063;50.878;4.742;2022-12-20T04:30:02;12.40;99.90
10046;DHT22;5063;50.878;4.742;2022-12-20T04:32:28;12.40;99.90
10046;DHT22;5063;50.878;4.742;2022-12-20T04:34:53;12.30;99.90
10046;DHT22;5063;50.878;4.742;2022-12-20T04:37:19;12.30;99.90
10046;DHT22;5063;50.878;4.742;2022-12-20T04:39:45;12.30;99.90
10046;DHT22;5063;50.878;4.742;2022-12-20T04:42:10;12.30;99.90
10046;DHT22;5063;50.878;4.742;2022-12-20T04:44:36;12.30;99.90
10046;DHT22;5063;50.878;4.742;2022-12-20T04:47:02;12.30;99.90
10046;DHT22;5063;50.878;4.742;2022-12-20T04:49:27;12.40;99.90
10046;DHT22;5063;50.878;4.742;2022-12-20T04:51:53;12.50;99.90
10046;DHT22;5063;50.878;4.742;2022-12-20T04:54:19;12.50;99.90
10046;DHT22;5063;50.878;4.742;2022-12-20T04:56:44;12.50;99.90
10046;DHT22;5063;50.878;4.742;2022-12-20T04:59:10;12.50;99.90
10046;DHT22;5063;50.878;4.742;2022-12-20T05:01:37;12.40;99.90
10046;DHT22;5063;50.878;4.742;2022-12-20T05:04:02;12.40;99.90
10046;DHT22;5063;50.878;4.742;2022-12-20T05:06:28;12.30;99.90
10046;DHT22;5063;50.878;4.742;2022-12-20T05:08:54;12.20;99.90
10046;DHT22;5063;50.878;4.742;2022-12-20T05:11:20;12.30;99.90
10046;DHT22;5063;50.878;4.742;2022-12-20T05:13:45;12.30;99.90
10046;DHT22;5063;50.878;4.742;2022-12-20T05:16:11;12.20;99.90
10046;DHT22;5063;50.878;4.742;2022-12-20T05:18:37;12.20;99.90
10046;DHT22;5063;50.878;4.742;2022-12-20T05:21:03;12.20;99.90
10046;DHT22;5063;50.878;4.742;2022-12-20T05:23:58;12.20;99.90
10046;DHT22;5063;50.878;4.742;2022-12-20T05:26:42;12.30;99.90
10046;DHT22;5063;50.878;4.742;2022-12-20T05:29:08;12.30;99.90
10046;DHT22;5063;50.878;4.742;2022-12-20T05:31:33;12.30;99.90
10046;DHT22;5063;50.878;4.742;2022-12-20T05:33:59;12.30;99.90
10046;DHT22;5063;50.878;4.742;2022-12-20T05:36:25;12.20;99.90
10046;DHT22;5063;50.878;4.742;2022-12-20T05:38:51;12.10;99.90
10046;DHT22;5063;50.878;4.742;2022-12-20T05:41:17;12.20;99.90
10046;DHT22;5063;50.878;4.742;2022-12-20T05:43:42;12.10;99.90
10046;DHT22;5063;50.878;4.742;2022-12-20T05:46:09;12.10;99.90
10046;DHT22;5063;50.878;4.742;2022-12-20T05:48:35;12.10;99.90
10046;DHT22;5063;50.878;4.742;2022-12-20T05:51:00;12.10;99.90
10046;DHT22;5063;50.878;4.742;2022-12-20T05:53:26;12.10;99.90
10046;DHT22;5063;50.878;4.742;2022-12-20T05:55:52;12.10;99.90
10046;DHT22;5063;50.878;4.742;2022-12-20T05:58:18;12.10;99.90
10046;DHT22;5063;50.878;4.742;2022-12-20T06:00:46;12.10;99.90
10046;DHT22;5063;50.878;4.742;2022-12-20T06:03:11;12.10;99.90
10046;DHT22;5063;50.878;4.742;2022-12-20T06:05:40;12.00;99.90
10046;DHT22;5063;50.878;4.742;2022-12-20T06:08:07;12.10;99.90
10046;DHT22;5063;50.878;4.742;2022-12-20T06:10:34;11.90;99.90
10046;DHT22;5063;50.878;4.742;2022-12-20T06:13:01;11.90;99.90
10046;DHT22;5063;50.878;4.742;2022-12-20T06:15:27;11.90;99.90
10046;DHT22;5063;50.878;4.742;2022-12-20T06:17:53;11.90;99.90
10046;DHT22;5063;50.878;4.742;2022-12-20T06:20:19;11.90;99.90
10046;DHT22;5063;50.878;4.742;2022-12-20T06:22:44;11.90;99.90
10046;DHT22;5063;50.878;4.742;2022-12-20T06:25:10;11.90;99.90
10046;DHT22;5063;50.878;4.742;2022-12-20T06:27:37;11.80;99.90
10046;DHT22;5063;50.878;4.742;2022-12-20T06:30:04;11.80;99.90
10046;DHT22;5063;50.878;4.742;2022-12-20T06:32:30;11.80;99.90
10046;DHT22;5063;50.878;4.742;2022-12-20T06:34:56;11.80;99.90
10046;DHT22;5063;50.878;4.742;2022-12-20T06:37:21;11.90;99.90
10046;DHT22;5063;50.878;4.742;2022-12-20T06:39:47;12.00;99.90
10046;DHT22;5063;50.878;4.742;2022-12-20T06:42:13;12.00;99.90
10046;DHT22;5063;50.878;4.742;2022-12-20T06:44:39;12.10;99.90
10046;DHT22;5063;50.878;4.742;2022-12-20T06:47:04;12.30;99.90
10046;DHT22;5063;50.878;4.742;2022-12-20T06:49:30;12.30;99.90
10046;DHT22;5063;50.878;4.742;2022-12-20T06:51:56;12.30;99.90
10046;DHT22;5063;50.878;4.742;2022-12-20T06:54:22;12.50;99.90
10046;DHT22;5063;50.878;4.742;2022-12-20T06:56:48;12.60;99.90
10046;DHT22;5063;50.878;4.742;2022-12-20T06:59:13;12.60;99.90
10046;DHT22;5063;50.878;4.742;2022-12-20T07:01:39;12.60;99.90
10046;DHT22;5063;50.878;4.742;2022-12-20T07:04:05;12.60;99.90
10046;DHT22;5063;50.878;4.742;2022-12-20T07:06:31;12.70;99.90
10046;DHT22;5063;50.878;4.742;2022-12-20T07:08:57;12.70;99.90
10046;DHT22;5063;50.878;4.742;2022-12-20T07:11:22;12.70;99.90
10046;DHT22;5063;50.878;4.742;2022-12-20T07:13:48;12.80;99.90
10046;DHT22;5063;50.878;4.742;2022-12-20T07:16:14;12.80;99.90
10046;DHT22;5063;50.878;4.742;2022-12-20T07:18:40;12.80;99.90
10046;DHT22;5063;50.878;4.742;2022-12-20T07:21:06;12.70;99.90
10046;DHT22;5063;50.878;4.742;2022-12-20T07:23:32;12.70;99.90
10046;DHT22;5063;50.878;4.742;2022-12-20T07:25:59;12.70;99.90
10046;DHT22;5063;50.878;4.742;2022-12-20T07:28:26;12.60;99.90
10046;DHT22;5063;50.878;4.742;2022-12-20T07:31:00;12.60;99.90
10046;DHT22;5063;50.878;4.742;2022-12-20T07:33:25;12.50;99.90
10046;DHT22;5063;50.878;4.742;2022-12-20T07:35:51;12.40;99.90
10046;DHT22;5063;50.878;4.742;2022-12-20T07:38:17;12.50;99.90
10046;DHT22;5063;50.878;4.742;2022-12-20T07:40:42;12.50;99.90
10046;DHT22;5063;50.878;4.742;2022-12-20T07:43:08;12.40;99.90
10046;DHT22;5063;50.878;4.742;2022-12-20T07:45:35;12.40;99.90
10046;DHT22;5063;50.878;4.742;2022-12-20T07:48:03;12.30;99.90
10046;DHT22;5063;50.878;4.742;2022-12-20T07:50:30;12.40;99.90
10046;DHT22;5063;50.878;4.742;2022-12-20T07:52:57;12.40;99.90
10046;DHT22;5063;50.878;4.742;2022-12-20T07:55:23;12.30;99.90
10046;DHT22;5063;50.878;4.742;2022-12-20T07:58:01;12.10;99.90
10046;DHT22;5063;50.878;4.742;2022-12-20T08:00:30;12.00;99.90
10046;DHT22;5063;50.878;4.742;2022-12-20T08:05:33;12.10;99.90
10046;DHT22;5063;50.878;4.742;2022-12-20T08:08:01;12.00;99.90
10046;DHT22;5063;50.878;4.742;2022-12-20T08:10:27;12.00;99.90
10046;DHT22;5063;50.878;4.742;2022-12-20T08:12:53;12.00;99.90
10046;DHT22;5063;50.878;4.742;2022-12-20T08:15:19;12.00;99.90
10046;DHT22;5063;50.878;4.742;2022-12-20T08:17:48;12.00;99.90
10046;DHT22;5063;50.878;4.742;2022-12-20T08:20:14;12.00;99.90
10046;DHT22;5063;50.878;4.742;2022-12-20T08:22:40;12.00;99.90
10046;DHT22;5063;50.878;4.742;2022-12-20T08:25:06;12.00;99.90
10046;DHT22;5063;50.878;4.742;2022-12-20T08:27:32;12.00;99.90
10046;DHT22;5063;50.878;4.742;2022-12-20T08:29:58;12.00;99.90
10046;DHT22;5063;50.878;4.742;2022-12-20T08:32:24;12.00;99.90
10046;DHT22;5063;50.878;4.742;2022-12-20T08:34:52;11.90;99.90
10046;DHT22;5063;50.878;4.742;2022-12-20T08:37:18;12.10;99.90
10046;DHT22;5063;50.878;4.742;2022-12-20T08:39:44;12.10;99.90
10046;DHT22;5063;50.878;4.742;2022-12-20T08:42:10;12.10;99.90
10046;DHT22;5063;50.878;4.742;2022-12-20T08:44:36;12.10;99.90
10046;DHT22;5063;50.878;4.742;2022-12-20T08:47:02;12.20;99.90
10046;DHT22;5063;50.878;4.742;2022-12-20T08:49:27;12.20;99.90
10046;DHT22;5063;50.878;4.742;2022-12-20T08:51:53;12.20;99.90
10046;DHT22;5063;50.878;4.742;2022-12-20T08:54:19;12.30;99.90
10046;DHT22;5063;50.878;4.742;2022-12-20T08:56:45;12.40;99.90
10046;DHT22;5063;50.878;4.742;2022-12-20T08:59:10;12.40;99.90
10046;DHT22;5063;50.878;4.742;2022-12-20T09:01:36;12.30;99.90
10046;DHT22;5063;50.878;4.742;2022-12-20T09:04:03;12.40;99.90
10046;DHT22;5063;50.878;4.742;2022-12-20T09:06:29;12.40;99.90
10046;DHT22;5063;50.878;4.742;2022-12-20T09:08:55;12.50;99.90
10046;DHT22;5063;50.878;4.742;2022-12-20T09:11:23;12.60;99.90
10046;DHT22;5063;50.878;4.742;2022-12-20T09:13:51;12.60;99.90
10046;DHT22;5063;50.878;4.742;2022-12-20T09:16:20;12.60;99.90
10046;DHT22;5063;50.878;4.742;2022-12-20T09:18:55;12.70;99.90
10046;DHT22;5063;50.878;4.742;2022-12-20T09:21:21;12.90;99.90
10046;DHT22;5063;50.878;4.742;2022-12-20T09:23:50;13.00;99.90
10046;DHT22;5063;50.878;4.742;2022-12-20T09:26:17;13.30;99.90
10046;DHT22;5063;50.878;4.742;2022-12-20T09:28:44;13.30;99.90
10046;DHT22;5063;50.878;4.742;2022-12-20T09:31:12;13.10;99.90
10046;DHT22;5063;50.878;4.742;2022-12-20T09:33:39;12.80;99.90
10046;DHT22;5063;50.878;4.742;2022-12-20T09:36:06;12.90;99.90
10046;DHT22;5063;50.878;4.742;2022-12-20T09:38:35;12.80;99.90
10046;DHT22;5063;50.878;4.742;2022-12-20T09:41:03;12.90;99.90
10046;DHT22;5063;50.878;4.742;2022-12-20T09:43:30;12.80;99.90
10046;DHT22;5063;50.878;4.742;2022-12-20T09:45:59;13.00;99.90
10046;DHT22;5063;50.878;4.742;2022-12-20T09:48:31;13.20;99.90
10046;DHT22;5063;50.878;4.742;2022-12-20T09:54:06;13.20;99.90
10046;DHT22;5063;50.878;4.742;2022-12-20T09:57:00;13.10;99.90
10046;DHT22;5063;50.878;4.742;2022-12-20T09:59:27;13.00;99.90
10046;DHT22;5063;50.878;4.742;2022-12-20T10:01:53;13.00;99.90
10046;DHT22;5063;50.878;4.742;2022-12-20T10:12:45;12.70;99.90
10046;DHT22;5063;50.878;4.742;2022-12-20T10:15:37;12.70;99.90
10046;DHT22;5063;50.878;4.742;2022-12-20T10:20:39;12.70;99.90
10046;DHT22;5063;50.878;4.742;2022-12-20T10:25:57;12.80;99.90
10046;DHT22;5063;50.878;4.742;2022-12-20T10:28:32;12.80;99.90
10046;DHT22;5063;50.878;4.742;2022-12-20T10:31:06;12.80;99.90
10046;DHT22;5063;50.878;4.742;2022-12-20T10:33:32;12.80;99.90
10046;DHT22;5063;50.878;4.742;2022-12-20T10:36:27;12.80;99.90
10046;DHT22;5063;50.878;4.742;2022-12-20T10:39:01;12.80;99.90
10046;DHT22;5063;50.878;4.742;2022-12-20T10:41:47;12.80;99.90
10046;DHT22;5063;50.878;4.742;2022-12-20T10:47:19;12.80;99.90
10046;DHT22;5063;50.878;4.742;2022-12-20T10:49:46;12.90;99.90
10046;DHT22;5063;50.878;4.742;2022-12-20T10:52:12;12.90;99.90
10046;DHT22;5063;50.878;4.742;2022-12-20T10:54:41;12.90;99.90
10046;DHT22;5063;50.878;4.742;2022-12-20T10:57:22;12.80;99.90
10046;DHT22;5063;50.878;4.742;2022-12-20T10:59:59;12.90;99.90
10046;DHT22;5063;50.878;4.742;2022-12-20T11:02:29;12.80;99.90
10046;DHT22;5063;50.878;4.742;2022-12-20T11:05:22;12.80;99.90
10046;DHT22;5063;50.878;4.742;2022-12-20T11:08:00;12.80;99.90
10046;DHT22;5063;50.878;4.742;2022-12-20T11:10:31;12.70;99.90
10046;DHT22;5063;50.878;4.742;2022-12-20T11:13:01;12.70;99.90
10046;DHT22;5063;50.878;4.742;2022-12-20T11:15:30;12.70;99.90
10046;DHT22;5063;50.878;4.742;2022-12-20T11:18:01;12.50;99.90
10046;DHT22;5063;50.878;4.742;2022-12-20T11:20:41;12.60;99.90
10046;DHT22;5063;50.878;4.742;2022-12-20T11:23:12;12.70;99.90
10046;DHT22;5063;50.878;4.742;2022-12-20T11:26:11;12.70;99.90
10046;DHT22;5063;50.878;4.742;2022-12-20T11:32:01;12.50;99.90
10046;DHT22;5063;50.878;4.742;2022-12-20T11:51:51;12.60;99.90
10046;DHT22;5063;50.878;4.742;2022-12-20T11:54:40;12.60;99.90
10046;DHT22;5063;50.878;4.742;2022-12-20T11:57:23;12.70;99.90
10046;DHT22;5063;50.878;4.742;2022-12-20T11:59:53;12.80;99.90
10046;DHT22;5063;50.878;4.742;2022-12-20T12:02:43;12.60;99.90
10046;DHT22;5063;50.878;4.742;2022-12-20T12:05:23;12.60;99.90
10046;DHT22;5063;50.878;4.742;2022-12-20T12:08:00;12.40;99.90
10046;DHT22;5063;50.878;4.742;2022-12-20T12:10:34;12.40;99.90
10046;DHT22;5063;50.878;4.742;2022-12-20T12:13:14;12.30;99.90
10046;DHT22;5063;50.878;4.742;2022-12-20T12:15:50;12.40;99.90
10046;DHT22;5063;50.878;4.742;2022-12-20T12:18:28;12.50;99.90
10046;DHT22;5063;50.878;4.742;2022-12-20T12:26:20;12.30;99.90
10046;DHT22;5063;50.878;4.742;2022-12-20T12:28:54;12.20;99.90
10046;DHT22;5063;50.878;4.742;2022-12-20T12:42:39;12.00;99.90
10046;DHT22;5063;50.878;4.742;2022-12-20T12:45:30;11.90;99.90
10046;DHT22;5063;50.878;4.742;2022-12-20T12:48:13;11.80;99.90
10046;DHT22;5063;50.878;4.742;2022-12-20T12:50:46;11.80;99.90
10046;DHT22;5063;50.878;4.742;2022-12-20T12:53:14;11.90;99.90
10046;DHT22;5063;50.878;4.742;2022-12-20T12:55:52;11.80;99.90
10046;DHT22;5063;50.878;4.742;2022-12-20T13:01:05;11.70;99.90
10046;DHT22;5063;50.878;4.742;2022-12-20T13:03:45;11.70;99.90
10046;DHT22;5063;50.878;4.742;2022-12-20T13:11:42;11.80;99.90
10046;DHT22;5063;50.878;4.742;2022-12-20T13:16:47;11.70;99.90
10046;DHT22;5063;50.878;4.742;2022-12-20T13:19:36;11.60;99.90
10046;DHT22;5063;50.878;4.742;2022-12-20T13:40:43;11.60;99.90
10046;DHT22;5063;50.878;4.742;2022-12-20T13:51:03;11.50;99.90
10046;DHT22;5063;50.878;4.742;2022-12-20T13:53:29;11.50;99.90
10046;DHT22;5063;50.878;4.742;2022-12-20T13:55:56;11.80;99.90
10046;DHT22;5063;50.878;4.742;2022-12-20T13:58:31;11.60;99.90
10046;DHT22;5063;50.878;4.742;2022-12-20T14:01:10;11.60;99.90
10046;DHT22;5063;50.878;4.742;2022-12-20T14:03:45;11.60;99.90
10046;DHT22;5063;50.878;4.742;2022-12-20T14:06:13;11.70;99.90
10046;DHT22;5063;50.878;4.742;2022-12-20T14:08:46;11.70;99.90
10046;DHT22;5063;50.878;4.742;2022-12-20T14:11:14;11.70;99.90
10046;DHT22;5063;50.878;4.742;2022-12-20T14:13:41;11.60;99.90
10046;DHT22;5063;50.878;4.742;2022-12-20T14:16:13;11.60;99.90
10046;DHT22;5063;50.878;4.742;2022-12-20T14:18:40;11.60;99.90
10046;DHT22;5063;50.878;4.742;2022-12-20T14:21:06;11.60;99.90
10046;DHT22;5063;50.878;4.742;2022-12-20T14:26:07;11.50;99.90
10046;DHT22;5063;50.878;4.742;2022-12-20T14:28:38;11.60;99.90
10046;DHT22;5063;50.878;4.742;2022-12-20T14:31:06;11.60;99.90
10046;DHT22;5063;50.878;4.742;2022-12-20T14:33:39;11.70;99.90
10046;DHT22;5063;50.878;4.742;2022-12-20T14:38:48;11.50;99.90
10046;DHT22;5063;50.878;4.742;2022-12-20T14:41:34;11.60;99.90
10046;DHT22;5063;50.878;4.742;2022-12-20T14:44:03;11.70;99.90
10046;DHT22;5063;50.878;4.742;2022-12-20T14:46:37;11.60;99.90
10046;DHT22;5063;50.878;4.742;2022-12-20T14:49:23;11.70;99.90
10046;DHT22;5063;50.878;4.742;2022-12-20T14:51:50;11.70;99.90
10046;DHT22;5063;50.878;4.742;2022-12-20T14:54:19;11.70;99.90
10046;DHT22;5063;50.878;4.742;2022-12-20T14:56:47;11.60;99.90
10046;DHT22;5063;50.878;4.742;2022-12-20T14:59:20;11.60;99.90
10046;DHT22;5063;50.878;4.742;2022-12-20T15:01:50;11.60;99.90
10046;DHT22;5063;50.878;4.742;2022-12-20T15:04:30;11.60;99.90
10046;DHT22;5063;50.878;4.742;2022-12-20T15:06:58;11.60;99.90
10046;DHT22;5063;50.878;4.742;2022-12-20T15:09:24;11.70;99.90
10046;DHT22;5063;50.878;4.742;2022-12-20T15:11:51;11.70;99.90
10046;DHT22;5063;50.878;4.742;2022-12-20T15:16:47;11.70;99.90
10046;DHT22;5063;50.878;4.742;2022-12-20T15:19:13;11.60;99.90
10046;DHT22;5063;50.878;4.742;2022-12-20T15:21:41;11.60;99.90
10046;DHT22;5063;50.878;4.742;2022-12-20T15:24:15;11.60;99.90
10046;DHT22;5063;50.878;4.742;2022-12-20T15:26:43;11.60;99.90
10046;DHT22;5063;50.878;4.742;2022-12-20T15:29:17;11.50;99.90
10046;DHT22;5063;50.878;4.742;2022-12-20T15:31:44;11.50;99.90
10046;DHT22;5063;50.878;4.742;2022-12-20T15:34:35;11.60;99.90
10046;DHT22;5063;50.878;4.742;2022-12-20T15:37:01;11.60;99.90
10046;DHT22;5063;50.878;4.742;2022-12-20T15:39:28;11.60;99.90
10046;DHT22;5063;50.878;4.742;2022-12-20T15:41:54;11.60;99.90
10046;DHT22;5063;50.878;4.742;2022-12-20T15:44:25;11.60;99.90
10046;DHT22;5063;50.878;4.742;2022-12-20T15:46:52;11.50;99.90
10046;DHT22;5063;50.878;4.742;2022-12-20T15:49:20;11.50;99.90
10046;DHT22;5063;50.878;4.742;2022-12-20T15:51:48;11.50;99.90
10046;DHT22;5063;50.878;4.742;2022-12-20T15:54:27;11.60;99.90
10046;DHT22;5063;50.878;4.742;2022-12-20T15:56:54;11.60;99.90
10046;DHT22;5063;50.878;4.742;2022-12-20T15:59:20;11.50;99.90
10046;DHT22;5063;50.878;4.742;2022-12-20T16:01:46;11.60;99.90
10046;DHT22;5063;50.878;4.742;2022-12-20T16:04:17;11.50;99.90
10046;DHT22;5063;50.878;4.742;2022-12-20T16:06:44;11.50;99.90
10046;DHT22;5063;50.878;4.742;2022-12-20T16:09:10;11.50;99.90
10046;DHT22;5063;50.878;4.742;2022-12-20T16:11:36;11.50;99.90
10046;DHT22;5063;50.878;4.742;2022-12-20T16:14:01;11.50;99.90
10046;DHT22;5063;50.878;4.742;2022-12-20T16:16:32;11.50;99.90
10046;DHT22;5063;50.878;4.742;2022-12-20T16:18:59;11.50;99.90
10046;DHT22;5063;50.878;4.742;2022-12-20T16:21:29;11.40;99.90
10046;DHT22;5063;50.878;4.742;2022-12-20T16:23:56;11.40;99.90
10046;DHT22;5063;50.878;4.742;2022-12-20T16:26:24;11.40;99.90
10046;DHT22;5063;50.878;4.742;2022-12-20T16:28:52;11.40;99.90
10046;DHT22;5063;50.878;4.742;2022-12-20T16:31:30;11.50;99.90
10046;DHT22;5063;50.878;4.742;2022-12-20T16:33:57;11.50;99.90
10046;DHT22;5063;50.878;4.742;2022-12-20T16:36:24;11.40;99.90
10046;DHT22;5063;50.878;4.742;2022-12-20T16:38:51;11.50;99.90
10046;DHT22;5063;50.878;4.742;2022-12-20T16:41:27;11.50;99.90
10046;DHT22;5063;50.878;4.742;2022-12-20T16:43:54;11.50;99.90
10046;DHT22;5063;50.878;4.742;2022-12-20T16:46:23;11.50;99.90
10046;DHT22;5063;50.878;4.742;2022-12-20T16:48:50;11.50;99.90
10046;DHT22;5063;50.878;4.742;2022-12-20T16:51:37;11.60;99.90
10046;DHT22;5063;50.878;4.742;2022-12-20T16:54:07;11.50;99.90
10046;DHT22;5063;50.878;4.742;2022-12-20T16:56:36;11.50;99.90
10046;DHT22;5063;50.878;4.742;2022-12-20T16:59:02;11.60;99.90
10046;DHT22;5063;50.878;4.742;2022-12-20T17:01:30;11.60;99.90
10046;DHT22;5063;50.878;4.742;2022-12-20T17:03:56;11.60;99.90
10046;DHT22;5063;50.878;4.742;2022-12-20T17:06:22;11.50;99.90
10046;DHT22;5063;50.878;4.742;2022-12-20T17:08:48;11.60;99.90
10046;DHT22;5063;50.878;4.742;2022-12-20T17:13:49;11.60;99.90
10046;DHT22;5063;50.878;4.742;2022-12-20T17:16:16;11.50;99.90
10046;DHT22;5063;50.878;4.742;2022-12-20T17:18:44;11.60;99.90
10046;DHT22;5063;50.878;4.742;2022-12-20T17:23:59;11.60;99.90
10046;DHT22;5063;50.878;4.742;2022-12-20T17:26:27;11.70;99.90
10046;DHT22;5063;50.878;4.742;2022-12-20T17:28:54;11.50;99.90
10046;DHT22;5063;50.878;4.742;2022-12-20T17:31:35;11.50;99.90
10046;DHT22;5063;50.878;4.742;2022-12-20T17:36:44;11.60;99.90
10046;DHT22;5063;50.878;4.742;2022-12-20T17:39:10;11.60;99.90
10046;DHT22;5063;50.878;4.742;2022-12-20T17:41:36;11.50;99.90
10046;DHT22;5063;50.878;4.742;2022-12-20T17:44:02;11.50;99.90
10046;DHT22;5063;50.878;4.742;2022-12-20T17:46:29;11.50;99.90
10046;DHT22;5063;50.878;4.742;2022-12-20T17:48:55;11.50;99.90
10046;DHT22;5063;50.878;4.742;2022-12-20T17:51:29;11.40;99.90
10046;DHT22;5063;50.878;4.742;2022-12-20T17:53:57;11.40;99.90
10046;DHT22;5063;50.878;4.742;2022-12-20T17:56:28;11.50;99.90
10046;DHT22;5063;50.878;4.742;2022-12-20T17:58:55;11.50;99.90
10046;DHT22;5063;50.878;4.742;2022-12-20T18:01:27;11.50;99.90
10046;DHT22;5063;50.878;4.742;2022-12-20T18:03:55;11.50;99.90
10046;DHT22;5063;50.878;4.742;2022-12-20T18:06:21;11.50;99.90